sensor_id;sensor_type;location;lat;lon;timestamp;pressure;altitude;pressure_sealevel;temperature;humidity
17362;BME280;8798;51.938;4.348;2022-11-15T00:01:00;101071.34;;;9.85;78.01
17362;BME280;8798;51.938;4.348;2022-11-15T00:03:28;101059.78;;;9.84;78.42
17362;BME280;8798;51.938;4.348;2022-11-15T00:06:01;101063.31;;;9.85;78.39
17362;BME280;8798;51.938;4.348;2022-11-15T00:08:31;101053.53;;;9.84;78.57
17362;BME280;8798;51.938;4.348;2022-11-15T00:11:01;101056.94;;;9.86;78.36
17362;BME280;8798;51.938;4.348;2022-11-15T00:13:29;101053.41;;;9.85;78.73
17362;BME280;8798;51.938;4.348;2022-11-15T00:15:57;101049.59;;;9.88;78.50
17362;BME280;8798;51.938;4.348;2022-11-15T00:18:26;101053.13;;;9.88;78.47
17362;BME280;8798;51.938;4.348;2022-11-15T00:20:54;101059.19;;;9.90;78.82
17362;BME280;8798;51.938;4.348;2022-11-15T00:23:22;101065.28;;;9.93;78.67
17362;BME280;8798;51.938;4.348;2022-11-15T00:25:56;101061.75;;;9.92;78.79
17362;BME280;8798;51.938;4.348;2022-11-15T00:28:25;101062.59;;;9.93;78.76
17362;BME280;8798;51.938;4.348;2022-11-15T00:30:53;101061.59;;;9.94;78.61
17362;BME280;8798;51.938;4.348;2022-11-15T00:33:21;101065.97;;;9.95;78.74
17362;BME280;8798;51.938;4.348;2022-11-15T00:35:49;101063.28;;;9.95;78.53
17362;BME280;8798;51.938;4.348;2022-11-15T00:38:16;101056.94;;;9.96;78.78
17362;BME280;8798;51.938;4.348;2022-11-15T00:40:44;101052.56;;;9.95;78.78
17362;BME280;8798;51.938;4.348;2022-11-15T00:43:13;101056.09;;;9.95;79.02
17362;BME280;8798;51.938;4.348;2022-11-15T00:45:41;101055.09;;;9.96;79.15
17362;BME280;8798;51.938;4.348;2022-11-15T00:48:09;101054.13;;;9.97;79.04
17362;BME280;8798;51.938;4.348;2022-11-15T00:50:37;101045.91;;;9.99;78.84
17362;BME280;8798;51.938;4.348;2022-11-15T00:53:04;101051.97;;;10.01;78.88
17362;BME280;8798;51.938;4.348;2022-11-15T00:55:32;101061.56;;;10.03;79.08
17362;BME280;8798;51.938;4.348;2022-11-15T00:58:00;101073.03;;;10.05;78.96
17362;BME280;8798;51.938;4.348;2022-11-15T01:00:29;101066.69;;;10.06;79.15
17362;BME280;8798;51.938;4.348;2022-11-15T01:02:57;101080.66;;;10.10;79.01
17362;BME280;8798;51.938;4.348;2022-11-15T01:05:25;101087.56;;;10.12;79.06
17362;BME280;8798;51.938;4.348;2022-11-15T01:07:53;101102.41;;;10.17;79.19
17362;BME280;8798;51.938;4.348;2022-11-15T01:10:21;101096.03;;;10.18;78.90
17362;BME280;8798;51.938;4.348;2022-11-15T01:12:49;101102.97;;;10.20;79.86
17362;BME280;8798;51.938;4.348;2022-11-15T01:15:17;101109.16;;;10.21;79.20
17362;BME280;8798;51.938;4.348;2022-11-15T01:17:46;101108.03;;;10.23;79.51
17362;BME280;8798;51.938;4.348;2022-11-15T01:20:14;101107.19;;;10.23;79.39
17362;BME280;8798;51.938;4.348;2022-11-15T01:22:42;101099.84;;;10.25;79.25
17362;BME280;8798;51.938;4.348;2022-11-15T01:25:09;101103.38;;;10.25;79.51
17362;BME280;8798;51.938;4.348;2022-11-15T01:27:37;101105.94;;;10.27;79.46
17362;BME280;8798;51.938;4.348;2022-11-15T01:30:06;101105.78;;;10.28;79.67
17362;BME280;8798;51.938;4.348;2022-11-15T01:32:34;101111.75;;;10.32;79.65
17362;BME280;8798;51.938;4.348;2022-11-15T01:35:04;101119.63;;;10.33;79.61
17362;BME280;8798;51.938;4.348;2022-11-15T01:37:32;101124.88;;;10.35;79.53
17362;BME280;8798;51.938;4.348;2022-11-15T01:39:59;101125.44;;;10.39;79.43
17362;BME280;8798;51.938;4.348;2022-11-15T01:42:27;101131.66;;;10.39;79.59
17362;BME280;8798;51.938;4.348;2022-11-15T01:44:55;101128.81;;;10.41;79.81
17362;BME280;8798;51.938;4.348;2022-11-15T01:47:24;101131.22;;;10.44;79.57
17362;BME280;8798;51.938;4.348;2022-11-15T01:49:55;101133.75;;;10.45;79.98
17362;BME280;8798;51.938;4.348;2022-11-15T01:52:28;101145.09;;;10.49;79.79
17362;BME280;8798;51.938;4.348;2022-11-15T01:55:02;101147.47;;;10.52;80.03
17362;BME280;8798;51.938;4.348;2022-11-15T01:57:32;101164.00;;;10.57;80.03
17362;BME280;8798;51.938;4.348;2022-11-15T02:00:00;101173.59;;;10.60;79.92
17362;BME280;8798;51.938;4.348;2022-11-15T02:02:29;101182.91;;;10.65;79.77
17362;BME280;8798;51.938;4.348;2022-11-15T02:04:57;101191.56;;;10.69;79.87
17362;BME280;8798;51.938;4.348;2022-11-15T02:07:27;101203.84;;;10.71;80.02
17362;BME280;8798;51.938;4.348;2022-11-15T02:09:58;101199.19;;;10.73;80.45
17362;BME280;8798;51.938;4.348;2022-11-15T02:12:27;101210.47;;;10.77;80.26
17362;BME280;8798;51.938;4.348;2022-11-15T02:14:58;101207.66;;;10.79;80.03
17362;BME280;8798;51.938;4.348;2022-11-15T02:17:35;101214.44;;;10.83;80.11
17362;BME280;8798;51.938;4.348;2022-11-15T02:20:23;101219.53;;;10.86;79.85
17362;BME280;8798;51.938;4.348;2022-11-15T02:23:23;101221.94;;;10.89;80.04
17362;BME280;8798;51.938;4.348;2022-11-15T02:26:14;101227.84;;;10.92;80.43
17362;BME280;8798;51.938;4.348;2022-11-15T02:28:50;101240.00;;;10.96;80.48
17362;BME280;8798;51.938;4.348;2022-11-15T02:31:28;101253.03;;;11.01;80.06
17362;BME280;8798;51.938;4.348;2022-11-15T02:34:04;101259.78;;;11.05;80.29
17362;BME280;8798;51.938;4.348;2022-11-15T02:36:39;101264.91;;;11.08;80.62
17362;BME280;8798;51.938;4.348;2022-11-15T02:39:13;101270.81;;;11.12;80.27
17362;BME280;8798;51.938;4.348;2022-11-15T02:41:47;101275.91;;;11.15;80.26
17362;BME280;8798;51.938;4.348;2022-11-15T02:44:23;101277.44;;;11.17;80.41
17362;BME280;8798;51.938;4.348;2022-11-15T02:46:54;101298.41;;;11.24;80.54
17362;BME280;8798;51.938;4.348;2022-11-15T02:49:43;101300.66;;;11.28;80.66
17362;BME280;8798;51.938;4.348;2022-11-15T02:52:15;101319.72;;;11.35;80.88
17362;BME280;8798;51.938;4.348;2022-11-15T02:54:53;101334.47;;;11.40;80.20
17362;BME280;8798;51.938;4.348;2022-11-15T02:57:28;101352.88;;;11.45;80.38
17362;BME280;8798;51.938;4.348;2022-11-15T03:00:07;101352.41;;;11.50;80.95
17362;BME280;8798;51.938;4.348;2022-11-15T03:02:42;101367.13;;;11.55;80.61
17362;BME280;8798;51.938;4.348;2022-11-15T03:05:20;101373.91;;;11.59;80.91
17362;BME280;8798;51.938;4.348;2022-11-15T03:07:54;101382.56;;;11.63;80.54
17362;BME280;8798;51.938;4.348;2022-11-15T03:10:34;101384.81;;;11.68;80.42
17362;BME280;8798;51.938;4.348;2022-11-15T03:13:20;101397.84;;;11.72;80.94
17362;BME280;8798;51.938;4.348;2022-11-15T03:15:53;101398.38;;;11.76;80.98
17362;BME280;8798;51.938;4.348;2022-11-15T03:18:30;101403.47;;;11.79;81.19
17362;BME280;8798;51.938;4.348;2022-11-15T03:21:02;101408.56;;;11.82;81.35
17362;BME280;8798;51.938;4.348;2022-11-15T03:23:33;101402.06;;;11.84;81.17
17362;BME280;8798;51.938;4.348;2022-11-15T03:26:05;101388.44;;;11.86;80.66
17362;BME280;8798;51.938;4.348;2022-11-15T03:28:38;101387.47;;;11.87;80.64
17362;BME280;8798;51.938;4.348;2022-11-15T03:31:08;101391.72;;;11.90;81.32
17362;BME280;8798;51.938;4.348;2022-11-15T03:33:55;101380.78;;;11.91;81.24
17362;BME280;8798;51.938;4.348;2022-11-15T03:36:25;101384.19;;;11.93;81.21
17362;BME280;8798;51.938;4.348;2022-11-15T03:38:55;101380.34;;;11.96;81.49
17362;BME280;8798;51.938;4.348;2022-11-15T03:41:34;101383.75;;;11.98;81.57
17362;BME280;8798;51.938;4.348;2022-11-15T03:44:10;101371.13;;;11.98;81.62
17362;BME280;8798;51.938;4.348;2022-11-15T03:46:43;101373.69;;;12.00;81.36
17362;BME280;8798;51.938;4.348;2022-11-15T03:49:17;101368.00;;;12.03;81.37
17362;BME280;8798;51.938;4.348;2022-11-15T03:51:47;101363.47;;;12.03;81.11
17362;BME280;8798;51.938;4.348;2022-11-15T03:54:15;101359.78;;;12.04;81.24
17362;BME280;8798;51.938;4.348;2022-11-15T03:56:43;101361.34;;;12.07;81.52
17362;BME280;8798;51.938;4.348;2022-11-15T03:59:10;101360.31;;;12.08;81.21
17362;BME280;8798;51.938;4.348;2022-11-15T04:01:38;101359.16;;;12.11;81.36
17362;BME280;8798;51.938;4.348;2022-11-15T04:04:06;101357.19;;;12.13;81.22
17362;BME280;8798;51.938;4.348;2022-11-15T04:06:35;101349.81;;;12.15;81.72
17362;BME280;8798;51.938;4.348;2022-11-15T04:09:03;101346.28;;;12.14;81.87
17362;BME280;8798;51.938;4.348;2022-11-15T04:11:31;101337.03;;;12.17;81.26
17362;BME280;8798;51.938;4.348;2022-11-15T04:13:59;101332.50;;;12.17;81.73
17362;BME280;8798;51.938;4.348;2022-11-15T04:16:26;101323.41;;;12.18;81.68
17362;BME280;8798;51.938;4.348;2022-11-15T04:18:54;101310.13;;;12.17;81.90
17362;BME280;8798;51.938;4.348;2022-11-15T04:21:37;101301.03;;;12.18;81.92
17362;BME280;8798;51.938;4.348;2022-11-15T04:24:22;101291.09;;;12.18;81.70
17362;BME280;8798;51.938;4.348;2022-11-15T04:26:50;101284.84;;;12.18;81.67
17362;BME280;8798;51.938;4.348;2022-11-15T04:29:18;101278.47;;;12.19;81.64
17362;BME280;8798;51.938;4.348;2022-11-15T04:32:05;101265.00;;;12.19;82.05
17362;BME280;8798;51.938;4.348;2022-11-15T04:34:33;101261.47;;;12.18;82.06
17362;BME280;8798;51.938;4.348;2022-11-15T04:37:02;101248.00;;;12.18;81.48
17362;BME280;8798;51.938;4.348;2022-11-15T04:39:39;101246.13;;;12.19;81.33
17362;BME280;8798;51.938;4.348;2022-11-15T04:42:08;101235.22;;;12.20;81.63
17362;BME280;8798;51.938;4.348;2022-11-15T04:44:35;101236.06;;;12.21;81.88
17362;BME280;8798;51.938;4.348;2022-11-15T04:47:03;101234.06;;;12.23;81.49
17362;BME280;8798;51.938;4.348;2022-11-15T04:49:32;101230.53;;;12.22;82.03
17362;BME280;8798;51.938;4.348;2022-11-15T04:52:00;101221.63;;;12.22;81.56
17362;BME280;8798;51.938;4.348;2022-11-15T04:54:29;101212.53;;;12.23;81.77
17362;BME280;8798;51.938;4.348;2022-11-15T04:56:57;101203.59;;;12.22;81.51
17362;BME280;8798;51.938;4.348;2022-11-15T04:59:25;101193.81;;;12.21;81.83
17362;BME280;8798;51.938;4.348;2022-11-15T05:01:52;101175.13;;;12.20;81.84
17362;BME280;8798;51.938;4.348;2022-11-15T05:04:20;101173.28;;;12.20;82.12
17362;BME280;8798;51.938;4.348;2022-11-15T05:06:48;101167.06;;;12.20;82.31
17362;BME280;8798;51.938;4.348;2022-11-15T05:09:17;101151.88;;;12.19;82.25
17362;BME280;8798;51.938;4.348;2022-11-15T05:11:46;101143.78;;;12.19;82.34
17362;BME280;8798;51.938;4.348;2022-11-15T05:14:14;101139.28;;;12.19;81.97
17362;BME280;8798;51.938;4.348;2022-11-15T05:16:42;101126.81;;;12.18;82.37
17362;BME280;8798;51.938;4.348;2022-11-15T05:19:10;101115.50;;;12.15;82.40
17362;BME280;8798;51.938;4.348;2022-11-15T05:21:38;101097.63;;;12.14;82.42
17362;BME280;8798;51.938;4.348;2022-11-15T05:24:08;101085.19;;;12.13;82.11
17362;BME280;8798;51.938;4.348;2022-11-15T05:26:36;101078.28;;;12.10;82.52
17362;BME280;8798;51.938;4.348;2022-11-15T05:29:05;101062.25;;;12.09;82.10
17362;BME280;8798;51.938;4.348;2022-11-15T05:31:33;101056.88;;;12.09;82.64
17362;BME280;8798;51.938;4.348;2022-11-15T05:34:03;101041.03;;;12.05;82.72
17362;BME280;8798;51.938;4.348;2022-11-15T05:36:35;101025.19;;;12.02;82.28
17362;BME280;8798;51.938;4.348;2022-11-15T05:39:05;100996.06;;;11.98;81.91
17362;BME280;8798;51.938;4.348;2022-11-15T05:41:37;100982.91;;;11.95;82.51
17362;BME280;8798;51.938;4.348;2022-11-15T05:44:11;100963.53;;;11.91;81.95
17362;BME280;8798;51.938;4.348;2022-11-15T05:46:41;100944.16;;;11.88;82.61
17362;BME280;8798;51.938;4.348;2022-11-15T05:49:12;100926.44;;;11.85;82.25
17362;BME280;8798;51.938;4.348;2022-11-15T05:51:44;100907.94;;;11.82;81.92
17362;BME280;8798;51.938;4.348;2022-11-15T05:54:14;100901.88;;;11.80;82.53
17362;BME280;8798;51.938;4.348;2022-11-15T05:56:43;100879.63;;;11.78;82.76
17362;BME280;8798;51.938;4.348;2022-11-15T05:59:12;100876.25;;;11.76;82.50
17362;BME280;8798;51.938;4.348;2022-11-15T06:01:41;100863.97;;;11.73;82.20
17362;BME280;8798;51.938;4.348;2022-11-15T06:04:09;100848.16;;;11.70;82.23
17362;BME280;8798;51.938;4.348;2022-11-15T06:06:37;100844.63;;;11.70;82.17
17362;BME280;8798;51.938;4.348;2022-11-15T06:09:04;100837.53;;;11.69;82.38
17362;BME280;8798;51.938;4.348;2022-11-15T06:11:32;100825.09;;;11.68;82.25
17362;BME280;8798;51.938;4.348;2022-11-15T06:14:00;100821.72;;;11.66;82.11
17362;BME280;8798;51.938;4.348;2022-11-15T06:16:29;100818.19;;;11.65;82.33
17362;BME280;8798;51.938;4.348;2022-11-15T06:18:57;100813.78;;;11.64;82.37
17362;BME280;8798;51.938;4.348;2022-11-15T06:21:24;100805.03;;;11.62;82.57
17362;BME280;8798;51.938;4.348;2022-11-15T06:23:54;100797.13;;;11.60;82.18
17362;BME280;8798;51.938;4.348;2022-11-15T06:26:22;100794.59;;;11.59;82.37
17362;BME280;8798;51.938;4.348;2022-11-15T06:28:49;100775.94;;;11.57;82.73
17362;BME280;8798;51.938;4.348;2022-11-15T06:31:17;100767.19;;;11.55;82.81
17362;BME280;8798;51.938;4.348;2022-11-15T06:33:46;100756.75;;;11.52;82.74
17362;BME280;8798;51.938;4.348;2022-11-15T06:36:16;100748.00;;;11.50;82.64
17362;BME280;8798;51.938;4.348;2022-11-15T06:38:44;100740.91;;;11.49;82.77
17362;BME280;8798;51.938;4.348;2022-11-15T06:41:13;100726.75;;;11.47;82.82
17362;BME280;8798;51.938;4.348;2022-11-15T06:43:41;100725.94;;;11.47;82.88
17362;BME280;8798;51.938;4.348;2022-11-15T06:46:09;100726.09;;;11.45;82.61
17362;BME280;8798;51.938;4.348;2022-11-15T06:48:37;100717.34;;;11.43;82.58
17362;BME280;8798;51.938;4.348;2022-11-15T06:51:06;100706.75;;;11.41;82.35
17362;BME280;8798;51.938;4.348;2022-11-15T06:53:34;100710.44;;;11.40;82.80
17362;BME280;8798;51.938;4.348;2022-11-15T06:56:04;100702.53;;;11.39;82.43
17362;BME280;8798;51.938;4.348;2022-11-15T06:58:32;100691.09;;;11.37;82.26
17362;BME280;8798;51.938;4.348;2022-11-15T07:01:00;100686.88;;;11.34;82.74
17362;BME280;8798;51.938;4.348;2022-11-15T07:03:29;100677.13;;;11.33;82.54
17362;BME280;8798;51.938;4.348;2022-11-15T07:05:57;100677.28;;;11.32;82.25
17362;BME280;8798;51.938;4.348;2022-11-15T07:08:34;100678.97;;;11.33;82.30
17362;BME280;8798;51.938;4.348;2022-11-15T07:11:04;100671.91;;;11.32;82.79
17362;BME280;8798;51.938;4.348;2022-11-15T07:13:33;100681.66;;;11.33;82.41
17362;BME280;8798;51.938;4.348;2022-11-15T07:16:02;100683.34;;;11.34;82.81
17362;BME280;8798;51.938;4.348;2022-11-15T07:18:30;100684.03;;;11.36;82.22
17362;BME280;8798;51.938;4.348;2022-11-15T07:21:00;100699.16;;;11.37;82.69
17362;BME280;8798;51.938;4.348;2022-11-15T07:23:28;100698.16;;;11.38;82.67
17362;BME280;8798;51.938;4.348;2022-11-15T07:25:58;100703.53;;;11.38;82.95
17362;BME280;8798;51.938;4.348;2022-11-15T07:28:32;100701.84;;;11.37;82.95
17362;BME280;8798;51.938;4.348;2022-11-15T07:31:03;100690.25;;;11.36;82.47
17362;BME280;8798;51.938;4.348;2022-11-15T07:33:31;100683.34;;;11.34;82.75
17362;BME280;8798;51.938;4.348;2022-11-15T07:36:00;100670.22;;;11.31;82.61
17362;BME280;8798;51.938;4.348;2022-11-15T07:38:29;100666.69;;;11.30;82.34
17362;BME280;8798;51.938;4.348;2022-11-15T07:41:00;100657.25;;;11.26;82.88
17362;BME280;8798;51.938;4.348;2022-11-15T07:43:29;100645.81;;;11.24;82.77
17362;BME280;8798;51.938;4.348;2022-11-15T07:46:04;100639.75;;;11.22;82.59
17362;BME280;8798;51.938;4.348;2022-11-15T07:48:35;100634.56;;;11.21;82.73
17362;BME280;8798;51.938;4.348;2022-11-15T07:51:11;100634.56;;;11.21;82.23
17362;BME280;8798;51.938;4.348;2022-11-15T07:53:40;100636.38;;;11.20;82.42
17362;BME280;8798;51.938;4.348;2022-11-15T07:56:10;100626.63;;;11.19;82.90
17362;BME280;8798;51.938;4.348;2022-11-15T07:58:38;100633.88;;;11.18;82.66
17362;BME280;8798;51.938;4.348;2022-11-15T08:01:07;100628.31;;;11.20;82.34
17362;BME280;8798;51.938;4.348;2022-11-15T08:03:36;100637.25;;;11.21;82.79
17362;BME280;8798;51.938;4.348;2022-11-15T08:06:04;100640.63;;;11.23;82.34
17362;BME280;8798;51.938;4.348;2022-11-15T08:08:32;100657.41;;;11.25;82.90
17362;BME280;8798;51.938;4.348;2022-11-15T08:11:00;100664.50;;;11.26;82.29
17362;BME280;8798;51.938;4.348;2022-11-15T08:13:29;100667.88;;;11.28;82.43
17362;BME280;8798;51.938;4.348;2022-11-15T08:15:59;100675.75;;;11.29;82.60
17362;BME280;8798;51.938;4.348;2022-11-15T08:18:27;100681.66;;;11.33;82.39
17362;BME280;8798;51.938;4.348;2022-11-15T08:20:58;100682.50;;;11.33;82.51
17362;BME280;8798;51.938;4.348;2022-11-15T08:23:27;100691.41;;;11.34;82.68
17362;BME280;8798;51.938;4.348;2022-11-15T08:26:00;100696.63;;;11.35;82.28
17362;BME280;8798;51.938;4.348;2022-11-15T08:28:30;100694.78;;;11.36;82.41
17362;BME280;8798;51.938;4.348;2022-11-15T08:30:58;100700.16;;;11.36;82.47
17362;BME280;8798;51.938;4.348;2022-11-15T08:33:27;100691.25;;;11.35;82.72
17362;BME280;8798;51.938;4.348;2022-11-15T08:35:56;100692.09;;;11.36;82.22
17362;BME280;8798;51.938;4.348;2022-11-15T08:38:25;100702.72;;;11.37;82.50
17362;BME280;8798;51.938;4.348;2022-11-15T08:40:58;100707.91;;;11.39;82.04
17362;BME280;8798;51.938;4.348;2022-11-15T08:43:27;100713.28;;;11.39;82.80
17362;BME280;8798;51.938;4.348;2022-11-15T08:45:57;100702.53;;;11.39;82.35
17362;BME280;8798;51.938;4.348;2022-11-15T08:48:25;100705.06;;;11.40;82.23
17362;BME280;8798;51.938;4.348;2022-11-15T08:50:53;100710.25;;;11.42;82.78
17362;BME280;8798;51.938;4.348;2022-11-15T08:53:22;100720.03;;;11.43;82.71
17362;BME280;8798;51.938;4.348;2022-11-15T08:55:50;100729.63;;;11.46;82.75
17362;BME280;8798;51.938;4.348;2022-11-15T08:58:18;100725.94;;;11.47;82.20
17362;BME280;8798;51.938;4.348;2022-11-15T09:00:45;100731.16;;;11.48;82.22
17362;BME280;8798;51.938;4.348;2022-11-15T09:03:15;100728.47;;;11.48;82.59
17362;BME280;8798;51.938;4.348;2022-11-15T09:05:43;100730.31;;;11.48;82.79
17362;BME280;8798;51.938;4.348;2022-11-15T09:08:10;100740.91;;;11.49;82.65
17362;BME280;8798;51.938;4.348;2022-11-15T09:11:02;100728.47;;;11.48;82.50
17362;BME280;8798;51.938;4.348;2022-11-15T09:13:30;100728.47;;;11.48;82.51
17362;BME280;8798;51.938;4.348;2022-11-15T09:15:58;100730.97;;;11.50;82.60
17362;BME280;8798;51.938;4.348;2022-11-15T09:18:27;100735.38;;;11.51;82.29
17362;BME280;8798;51.938;4.348;2022-11-15T09:20:56;100751.19;;;11.54;82.23
17362;BME280;8798;51.938;4.348;2022-11-15T09:23:25;100758.09;;;11.56;82.34
17362;BME280;8798;51.938;4.348;2022-11-15T09:25:58;100764.00;;;11.60;82.25
17362;BME280;8798;51.938;4.348;2022-11-15T09:28:26;100775.97;;;11.66;82.14
17362;BME280;8798;51.938;4.348;2022-11-15T09:30:56;100790.09;;;11.68;82.24
17362;BME280;8798;51.938;4.348;2022-11-15T09:33:25;100805.94;;;11.71;81.88
17362;BME280;8798;51.938;4.348;2022-11-15T09:35:59;100805.78;;;11.72;82.26
17362;BME280;8798;51.938;4.348;2022-11-15T09:38:27;100804.75;;;11.73;81.74
17362;BME280;8798;51.938;4.348;2022-11-15T09:41:15;100805.59;;;11.74;81.73
17362;BME280;8798;51.938;4.348;2022-11-15T09:43:54;100813.34;;;11.77;82.26
17362;BME280;8798;51.938;4.348;2022-11-15T09:46:33;100812.34;;;11.78;82.06
17362;BME280;8798;51.938;4.348;2022-11-15T09:49:07;100816.72;;;11.79;82.33
17362;BME280;8798;51.938;4.348;2022-11-15T09:51:39;100819.25;;;11.80;82.10
17362;BME280;8798;51.938;4.348;2022-11-15T09:54:21;100832.41;;;11.83;81.74
17362;BME280;8798;51.938;4.348;2022-11-15T09:57:12;100822.47;;;11.84;81.62
17362;BME280;8798;51.938;4.348;2022-11-15T10:00:08;100846.25;;;11.89;82.01
17362;BME280;8798;51.938;4.348;2022-11-15T10:03:08;100836.31;;;11.89;81.49
17362;BME280;8798;51.938;4.348;2022-11-15T10:05:38;100840.72;;;11.90;81.89
17362;BME280;8798;51.938;4.348;2022-11-15T10:08:27;100844.94;;;11.93;82.10
17362;BME280;8798;51.938;4.348;2022-11-15T10:10:59;100854.53;;;11.95;81.74
17362;BME280;8798;51.938;4.348;2022-11-15T10:13:49;100852.53;;;11.97;81.83
17362;BME280;8798;51.938;4.348;2022-11-15T10:16:40;100854.19;;;11.98;81.49
17362;BME280;8798;51.938;4.348;2022-11-15T10:19:20;100853.03;;;12.01;81.64
17362;BME280;8798;51.938;4.348;2022-11-15T10:22:11;100854.75;;;12.02;80.96
17362;BME280;8798;51.938;4.348;2022-11-15T10:24:45;100858.28;;;12.02;81.51
17362;BME280;8798;51.938;4.348;2022-11-15T10:27:15;100861.47;;;12.06;80.92
17362;BME280;8798;51.938;4.348;2022-11-15T10:29:45;100876.47;;;12.09;81.44
17362;BME280;8798;51.938;4.348;2022-11-15T10:32:14;100888.59;;;12.13;81.65
17362;BME280;8798;51.938;4.348;2022-11-15T10:34:43;100903.44;;;12.17;81.23
17362;BME280;8798;51.938;4.348;2022-11-15T10:37:11;100907.50;;;12.21;81.18
17362;BME280;8798;51.938;4.348;2022-11-15T10:39:38;100912.41;;;12.25;80.57
17362;BME280;8798;51.938;4.348;2022-11-15T10:42:25;100932.78;;;12.28;80.67
17362;BME280;8798;51.938;4.348;2022-11-15T10:44:54;100937.69;;;12.33;80.61
17362;BME280;8798;51.938;4.348;2022-11-15T10:47:27;100940.88;;;12.36;81.25
17362;BME280;8798;51.938;4.348;2022-11-15T10:50:07;100948.81;;;12.38;80.93
17362;BME280;8798;51.938;4.348;2022-11-15T10:52:52;100959.13;;;12.42;80.85
17362;BME280;8798;51.938;4.348;2022-11-15T10:55:24;100970.25;;;12.47;80.52
17362;BME280;8798;51.938;4.348;2022-11-15T10:57:56;100985.94;;;12.52;80.67
17362;BME280;8798;51.938;4.348;2022-11-15T11:00:29;100990.00;;;12.56;80.85
17362;BME280;8798;51.938;4.348;2022-11-15T11:02:59;100998.59;;;12.60;80.31
17362;BME280;8798;51.938;4.348;2022-11-15T11:05:30;101002.00;;;12.62;80.25
17362;BME280;8798;51.938;4.348;2022-11-15T11:08:21;101002.50;;;12.65;80.28
17362;BME280;8798;51.938;4.348;2022-11-15T11:10:52;101012.09;;;12.68;80.46
17362;BME280;8798;51.938;4.348;2022-11-15T11:13:30;101017.03;;;12.73;80.42
17362;BME280;8798;51.938;4.348;2022-11-15T11:18:51;101030.72;;;12.79;79.83
17362;BME280;8798;51.938;4.348;2022-11-15T11:21:26;101029.69;;;12.80;80.00
17362;BME280;8798;51.938;4.348;2022-11-15T11:24:11;101026.69;;;12.83;79.85
17362;BME280;8798;51.938;4.348;2022-11-15T11:26:48;101033.59;;;12.86;79.58
17362;BME280;8798;51.938;4.348;2022-11-15T11:29:35;101028.88;;;12.88;80.00
17362;BME280;8798;51.938;4.348;2022-11-15T11:32:16;101023.34;;;12.89;80.04
17362;BME280;8798;51.938;4.348;2022-11-15T11:34:55;101018.78;;;12.90;79.48
17362;BME280;8798;51.938;4.348;2022-11-15T11:37:32;101023.00;;;12.93;79.17
17362;BME280;8798;51.938;4.348;2022-11-15T11:40:13;101004.97;;;12.93;78.94
17362;BME280;8798;51.938;4.348;2022-11-15T11:42:50;101007.50;;;12.95;79.01
17362;BME280;8798;51.938;4.348;2022-11-15T11:48:43;100998.09;;;12.99;78.93
17362;BME280;8798;51.938;4.348;2022-11-15T11:51:17;101004.00;;;13.02;79.16
17362;BME280;8798;51.938;4.348;2022-11-15T11:53:51;101010.75;;;13.06;79.18
17362;BME280;8798;51.938;4.348;2022-11-15T11:56:25;101032.53;;;13.13;79.04
17362;BME280;8798;51.938;4.348;2022-11-15T11:58:57;101039.25;;;13.17;78.71
17362;BME280;8798;51.938;4.348;2022-11-15T12:01:33;101046.72;;;13.23;78.71
17362;BME280;8798;51.938;4.348;2022-11-15T12:04:09;101064.28;;;13.27;78.72
17362;BME280;8798;51.938;4.348;2022-11-15T12:06:44;101075.41;;;13.32;78.30
17362;BME280;8798;51.938;4.348;2022-11-15T12:09:17;101085.56;;;13.39;78.27
17362;BME280;8798;51.938;4.348;2022-11-15T12:11:52;101097.41;;;13.46;78.62
17362;BME280;8798;51.938;4.348;2022-11-15T12:14:32;101111.25;;;13.51;78.52
17362;BME280;8798;51.938;4.348;2022-11-15T12:17:02;101113.59;;;13.54;78.22
17362;BME280;8798;51.938;4.348;2022-11-15T12:19:30;101124.94;;;13.58;77.93
17362;BME280;8798;51.938;4.348;2022-11-15T12:22:02;101109.25;;;13.61;77.70
17362;BME280;8798;51.938;4.348;2022-11-15T12:24:37;101110.09;;;13.62;78.08
17362;BME280;8798;51.938;4.348;2022-11-15T12:27:13;101095.59;;;13.63;77.80
17362;BME280;8798;51.938;4.348;2022-11-15T12:29:53;101090.00;;;13.64;77.82
17362;BME280;8798;51.938;4.348;2022-11-15T12:32:28;101096.78;;;13.68;77.75
17362;BME280;8798;51.938;4.348;2022-11-15T12:34:57;101095.59;;;13.71;77.69
17362;BME280;8798;51.938;4.348;2022-11-15T12:37:41;101089.19;;;13.72;77.56
17362;BME280;8798;51.938;4.348;2022-11-15T12:40:22;101085.47;;;13.73;76.95
17362;BME280;8798;51.938;4.348;2022-11-15T12:45:45;101048.88;;;13.70;77.26
17362;BME280;8798;51.938;4.348;2022-11-15T12:54:52;100991.66;;;13.67;76.79
17362;BME280;8798;51.938;4.348;2022-11-15T12:57:40;100968.38;;;13.66;76.80
17362;BME280;8798;51.938;4.348;2022-11-15T13:03:18;100950.31;;;13.66;76.67
17362;BME280;8798;51.938;4.348;2022-11-15T13:06:07;100953.53;;;13.70;76.56
17362;BME280;8798;51.938;4.348;2022-11-15T13:08:47;100943.56;;;13.70;76.58
17362;BME280;8798;51.938;4.348;2022-11-15T13:11:48;100938.16;;;13.70;76.22
17362;BME280;8798;51.938;4.348;2022-11-15T13:14:47;100918.44;;;13.70;76.31
17362;BME280;8798;51.938;4.348;2022-11-15T13:20:22;100901.22;;;13.71;75.93
17362;BME280;8798;51.938;4.348;2022-11-15T13:22:52;100899.19;;;13.73;75.88
17362;BME280;8798;51.938;4.348;2022-11-15T13:26:05;100888.19;;;13.74;75.54
17362;BME280;8798;51.938;4.348;2022-11-15T13:28:39;100876.56;;;13.74;75.37
17362;BME280;8798;51.938;4.348;2022-11-15T13:31:27;100873.88;;;13.74;75.36
17362;BME280;8798;51.938;4.348;2022-11-15T13:33:59;100864.09;;;13.73;75.40
17362;BME280;8798;51.938;4.348;2022-11-15T13:36:29;100841.66;;;13.72;75.22
17362;BME280;8798;51.938;4.348;2022-11-15T13:39:01;100830.00;;;13.72;75.19
17362;BME280;8798;51.938;4.348;2022-11-15T13:41:32;100828.16;;;13.72;75.16
17362;BME280;8798;51.938;4.348;2022-11-15T13:44:02;100818.19;;;13.73;75.14
17362;BME280;8798;51.938;4.348;2022-11-15T13:46:31;100801.16;;;13.72;74.66
17362;BME280;8798;51.938;4.348;2022-11-15T13:49:01;100795.75;;;13.72;74.71